createdAt,value
2019-03-31T00:00:35.315Z,100566.00
2019-03-31T00:03:09.090Z,100570.00
2019-03-31T00:05:42.729Z,100574.00
2019-03-31T00:08:16.392Z,100581.00
2019-03-31T00:10:50.062Z,100570.00
2019-03-31T00:13:23.720Z,100575.00
2019-03-31T00:15:59.273Z,100567.00
2019-03-31T00:18:32.997Z,100566.00
2019-03-31T00:21:06.703Z,100567.00
2019-03-31T00:23:41.772Z,100575.00
2019-03-31T00:26:16.835Z,100566.00
2019-03-31T00:28:50.594Z,100567.00
2019-03-31T00:31:24.236Z,100570.00
2019-03-31T00:33:57.955Z,100559.00
2019-03-31T00:36:31.607Z,100569.00
2019-03-31T00:39:07.735Z,100560.00
2019-03-31T00:41:41.453Z,100572.00
2019-03-31T00:44:15.156Z,100563.00
2019-03-31T00:46:48.863Z,100564.00
2019-03-31T00:49:22.474Z,100565.00
2019-03-31T00:51:56.138Z,100562.00
2019-03-31T00:54:29.874Z,100564.00
2019-03-31T00:57:03.598Z,100566.00
2019-03-31T00:59:37.234Z,100571.00
2019-03-31T01:02:15.301Z,100564.00
2019-03-31T01:04:49.020Z,100576.00
2019-03-31T01:07:25.614Z,100576.00
2019-03-31T01:10:01.030Z,100569.00
2019-03-31T01:12:34.764Z,100573.00
2019-03-31T01:15:15.144Z,100563.00
2019-03-31T01:17:49.312Z,100559.00
2019-03-31T01:20:22.946Z,100564.00
2019-03-31T01:22:56.581Z,100561.00
2019-03-31T01:25:30.201Z,100570.00
2019-03-31T01:28:03.993Z,100569.00
2019-03-31T01:30:37.773Z,100559.00
2019-03-31T01:33:11.517Z,100559.00
2019-03-31T01:35:46.336Z,100564.00
2019-03-31T01:38:20.091Z,100557.00
2019-03-31T01:40:53.682Z,100560.00
2019-03-31T01:43:27.362Z,100559.00
2019-03-31T01:46:01.551Z,100557.00
2019-03-31T01:48:35.166Z,100552.00
2019-03-31T01:51:09.320Z,100565.00
2019-03-31T01:53:42.991Z,100574.00
2019-03-31T01:56:17.911Z,100565.00
2019-03-31T01:58:51.587Z,100564.00
2019-03-31T02:01:25.425Z,100567.00
2019-03-31T02:03:59.152Z,100573.00
2019-03-31T02:06:33.779Z,100562.00
2019-03-31T02:09:07.650Z,100575.00
2019-03-31T02:11:43.387Z,100573.00
2019-03-31T02:14:17.054Z,100560.00
2019-03-31T02:16:50.653Z,100560.00
2019-03-31T02:19:24.308Z,100573.00
2019-03-31T02:21:57.984Z,100561.00
2019-03-31T02:24:31.661Z,100561.00
2019-03-31T02:27:05.369Z,100556.00
2019-03-31T02:29:38.981Z,100560.00
2019-03-31T02:32:23.214Z,100562.00
2019-03-31T02:34:49.384Z,100564.00
2019-03-31T02:37:23.021Z,100564.00
2019-03-31T02:39:56.663Z,100565.00
2019-03-31T02:42:30.295Z,100561.00
2019-03-31T02:45:04.608Z,100558.00
2019-03-31T02:47:38.332Z,100552.00
2019-03-31T02:50:40.575Z,100560.00
2019-03-31T02:53:15.768Z,100556.00
2019-03-31T02:55:49.895Z,100560.00
2019-03-31T02:58:24.616Z,100563.00
2019-03-31T03:00:59.136Z,100558.00
2019-03-31T03:03:35.777Z,100558.00
2019-03-31T03:06:12.894Z,100561.00
2019-03-31T03:08:50.378Z,100558.00
2019-03-31T03:11:25.559Z,100555.00
2019-03-31T03:14:03.144Z,100560.00
2019-03-31T03:16:37.876Z,100563.00
2019-03-31T03:19:11.483Z,100564.00
2019-03-31T03:21:45.099Z,100565.00
2019-03-31T03:24:18.875Z,100555.00
2019-03-31T03:26:52.508Z,100561.00
2019-03-31T03:29:26.101Z,100563.00
2019-03-31T03:31:59.741Z,100552.00
2019-03-31T03:34:33.661Z,100555.00
2019-03-31T03:37:07.256Z,100542.00
2019-03-31T03:39:40.909Z,100542.00
2019-03-31T03:42:14.562Z,100549.00
2019-03-31T03:44:48.171Z,100552.00
2019-03-31T03:47:22.031Z,100556.00
2019-03-31T03:49:55.798Z,100548.00
2019-03-31T03:52:29.571Z,100558.00
2019-03-31T03:55:03.312Z,100555.00
2019-03-31T03:57:37.013Z,100564.00
2019-03-31T04:00:10.864Z,100553.00
2019-03-31T04:02:44.562Z,100555.00
2019-03-31T04:05:18.177Z,100555.00
2019-03-31T04:07:51.907Z,100558.00
2019-03-31T04:11:24.682Z,100561.00
2019-03-31T04:13:59.124Z,100559.00
2019-03-31T04:16:34.179Z,100565.00
2019-03-31T04:19:07.886Z,100561.00
2019-03-31T04:21:41.536Z,100559.00
2019-03-31T04:24:15.150Z,100563.00
2019-03-31T04:26:49.014Z,100555.00
2019-03-31T04:29:22.646Z,100556.00
2019-03-31T04:31:56.395Z,100557.00
2019-03-31T04:34:29.987Z,100560.00
2019-03-31T04:37:03.580Z,100567.00
2019-03-31T04:39:39.994Z,100561.00
2019-03-31T04:42:13.672Z,100560.00
2019-03-31T04:44:49.229Z,100569.00
2019-03-31T04:47:22.851Z,100566.00
2019-03-31T04:49:56.641Z,100577.00
2019-03-31T04:52:30.498Z,100577.00
2019-03-31T04:55:04.262Z,100568.00
2019-03-31T04:57:37.846Z,100586.00
2019-03-31T05:00:11.971Z,100580.00
2019-03-31T05:02:45.611Z,100578.00
2019-03-31T05:05:19.316Z,100568.00
2019-03-31T05:07:52.914Z,100572.00
2019-03-31T05:10:26.538Z,100579.00
2019-03-31T05:13:00.270Z,100582.00
2019-03-31T05:15:33.948Z,100578.00
2019-03-31T05:18:07.782Z,100571.00
2019-03-31T05:20:41.386Z,100573.00
2019-03-31T05:23:15.033Z,100573.00
2019-03-31T05:25:49.038Z,100568.00
2019-03-31T05:28:22.770Z,100574.00
2019-03-31T05:30:56.476Z,100575.00
2019-03-31T05:33:30.198Z,100574.00
2019-03-31T05:36:05.024Z,100575.00
2019-03-31T05:38:38.640Z,100590.00
2019-03-31T05:41:12.726Z,100582.00
2019-03-31T05:43:46.401Z,100590.00
2019-03-31T05:46:20.146Z,100593.00
2019-03-31T05:48:53.779Z,100601.00
2019-03-31T05:51:27.548Z,100594.00
2019-03-31T05:54:03.016Z,100601.00
2019-03-31T05:56:36.617Z,100602.00
2019-03-31T05:59:10.327Z,100611.00
2019-03-31T06:01:44.005Z,100615.00
2019-03-31T06:04:32.278Z,100609.00
2019-03-31T06:06:54.603Z,100618.00
2019-03-31T06:09:28.271Z,100624.00
2019-03-31T06:12:01.970Z,100622.00
2019-03-31T06:14:35.703Z,100624.00
2019-03-31T06:17:09.307Z,100624.00
2019-03-31T06:19:42.988Z,100632.00
2019-03-31T06:22:16.863Z,100636.00
2019-03-31T06:24:50.562Z,100633.00
2019-03-31T06:27:24.177Z,100645.00
2019-03-31T06:29:57.906Z,100639.00
2019-03-31T06:32:31.505Z,100637.00
2019-03-31T06:35:05.649Z,100652.00
2019-03-31T06:37:39.403Z,100656.00
2019-03-31T06:40:13.169Z,100651.00
2019-03-31T06:42:46.770Z,100665.00
2019-03-31T06:45:20.431Z,100655.00
2019-03-31T06:47:54.262Z,100661.00
2019-03-31T06:50:27.999Z,100665.00
2019-03-31T06:53:01.707Z,100667.00
2019-03-31T06:55:35.342Z,100657.00
2019-03-31T06:58:09.091Z,100675.00
2019-03-31T07:00:42.736Z,100679.00
2019-03-31T07:03:16.384Z,100667.00
2019-03-31T07:05:50.055Z,100671.00
2019-03-31T07:08:23.713Z,100670.00
2019-03-31T07:10:57.371Z,100690.00
2019-03-31T07:13:31.133Z,100693.00
2019-03-31T07:16:04.821Z,100686.00
2019-03-31T07:18:38.468Z,100695.00
2019-03-31T07:21:12.104Z,100688.00
2019-03-31T07:23:45.805Z,100691.00
2019-03-31T07:26:20.639Z,100701.00
2019-03-31T07:28:54.367Z,100701.00
2019-03-31T07:31:28.023Z,100687.00
2019-03-31T07:34:01.646Z,100698.00
2019-03-31T07:36:35.287Z,100703.00
2019-03-31T07:39:09.283Z,100704.00
2019-03-31T07:41:43.593Z,100700.00
2019-03-31T07:44:17.340Z,100698.00
2019-03-31T07:46:52.296Z,100694.00
2019-03-31T07:49:25.939Z,100692.00
2019-03-31T07:51:59.655Z,100698.00
2019-03-31T07:54:33.348Z,100694.00
2019-03-31T07:57:07.316Z,100691.00
2019-03-31T07:59:41.246Z,100692.00
2019-03-31T08:02:15.329Z,100706.00
2019-03-31T08:04:49.066Z,100716.00
2019-03-31T08:07:24.030Z,100712.00
2019-03-31T08:09:57.765Z,100707.00
2019-03-31T08:12:31.469Z,100707.00
2019-03-31T08:15:05.415Z,100699.00
2019-03-31T08:17:42.609Z,100700.00
2019-03-31T08:20:15.919Z,100686.00
2019-03-31T08:22:49.589Z,100713.00
2019-03-31T08:25:23.358Z,100720.00
2019-03-31T08:27:57.028Z,100708.00
2019-03-31T08:30:30.736Z,100706.00
2019-03-31T08:33:04.346Z,100710.00
2019-03-31T08:35:47.214Z,100705.00
2019-03-31T08:38:13.682Z,100705.00
2019-03-31T08:40:47.539Z,100706.00
2019-03-31T08:43:21.179Z,100711.00
2019-03-31T08:45:54.977Z,100710.00
2019-03-31T08:48:28.911Z,100715.00
2019-03-31T08:51:02.598Z,100712.00
2019-03-31T08:53:36.344Z,100726.00
2019-03-31T08:56:09.916Z,100726.00
2019-03-31T08:58:43.504Z,100725.00
2019-03-31T09:01:17.213Z,100717.00
2019-03-31T09:03:50.637Z,100723.00
2019-03-31T09:06:24.257Z,100726.00
2019-03-31T09:08:57.818Z,100714.00
2019-03-31T09:11:31.272Z,100716.00
2019-03-31T09:14:04.871Z,100726.00
2019-03-31T09:16:38.436Z,100725.00
2019-03-31T09:19:12.024Z,100723.00
2019-03-31T09:21:47.136Z,100724.00
2019-03-31T09:24:20.761Z,100724.00
2019-03-31T09:26:55.334Z,100732.00
2019-03-31T09:29:28.829Z,100713.00
2019-03-31T09:32:02.584Z,100734.00
2019-03-31T09:34:36.229Z,100732.00
2019-03-31T09:37:09.796Z,100730.00
2019-03-31T09:39:43.368Z,100721.00
2019-03-31T09:42:16.925Z,100728.00
2019-03-31T09:44:50.455Z,100722.00
2019-03-31T09:47:24.052Z,100716.00
2019-03-31T09:49:57.846Z,100721.00
2019-03-31T09:52:31.427Z,100724.00
2019-03-31T09:55:05.947Z,100725.00
2019-03-31T09:57:40.859Z,100721.00
2019-03-31T10:00:15.626Z,100729.00
2019-03-31T10:02:49.710Z,100724.00
2019-03-31T10:05:23.376Z,100721.00
2019-03-31T10:07:57.632Z,100731.00
2019-03-31T10:10:32.004Z,100724.00
2019-03-31T10:13:06.668Z,100724.00
2019-03-31T10:15:40.433Z,100720.00
2019-03-31T10:18:14.136Z,100723.00
2019-03-31T10:20:51.677Z,100714.00
2019-03-31T10:23:26.551Z,100710.00
2019-03-31T10:26:00.313Z,100711.00
2019-03-31T10:28:34.027Z,100696.00
2019-03-31T10:31:08.888Z,100700.00
2019-03-31T10:33:42.800Z,100706.00
2019-03-31T10:36:16.694Z,100711.00
2019-03-31T10:38:50.321Z,100697.00
2019-03-31T10:41:23.972Z,100701.00
2019-03-31T10:43:57.867Z,100705.00
2019-03-31T10:46:31.534Z,100696.00
2019-03-31T10:49:05.341Z,100705.00
2019-03-31T10:51:39.220Z,100700.00
2019-03-31T10:54:12.903Z,100689.00
2019-03-31T10:56:46.726Z,100691.00
2019-03-31T10:59:20.397Z,100698.00
2019-03-31T11:01:54.080Z,100690.00
2019-03-31T11:04:28.976Z,100689.00
2019-03-31T11:07:03.641Z,100689.00
2019-03-31T11:09:37.456Z,100690.00
2019-03-31T11:12:11.249Z,100709.00
2019-03-31T11:14:46.217Z,100698.00
2019-03-31T11:17:20.137Z,100692.00
2019-03-31T11:19:53.824Z,100703.00
2019-03-31T11:22:35.018Z,100701.00
2019-03-31T11:25:20.249Z,100694.00
2019-03-31T11:27:45.479Z,100683.00
2019-03-31T11:30:19.739Z,100692.00
2019-03-31T11:32:53.513Z,100692.00
2019-03-31T11:35:27.167Z,100688.00
2019-03-31T11:38:00.973Z,100699.00
2019-03-31T11:40:34.880Z,100688.00
2019-03-31T11:43:08.567Z,100690.00
2019-03-31T11:45:42.202Z,100693.00
2019-03-31T11:48:16.007Z,100689.00
2019-03-31T11:50:50.829Z,100685.00
2019-03-31T11:53:24.498Z,100688.00
2019-03-31T11:55:58.202Z,100683.00
2019-03-31T11:58:32.375Z,100686.00
2019-03-31T12:01:06.355Z,100678.00
2019-03-31T12:03:40.252Z,100683.00
2019-03-31T12:06:14.087Z,100679.00
2019-03-31T12:08:47.712Z,100674.00
2019-03-31T12:11:21.369Z,100674.00
2019-03-31T12:13:55.302Z,100679.00
2019-03-31T12:16:28.972Z,100678.00
2019-03-31T12:19:02.709Z,100682.00
2019-03-31T12:21:36.797Z,100672.00
2019-03-31T12:24:10.604Z,100676.00
2019-03-31T12:26:44.355Z,100660.00
2019-03-31T12:29:18.064Z,100662.00
2019-03-31T12:31:51.878Z,100658.00
2019-03-31T12:34:25.591Z,100656.00
2019-03-31T12:36:59.328Z,100656.00
2019-03-31T12:39:33.119Z,100658.00
2019-03-31T12:42:06.788Z,100642.00
2019-03-31T12:44:40.506Z,100652.00
2019-03-31T12:47:14.384Z,100649.00
2019-03-31T12:49:48.131Z,100654.00
2019-03-31T12:52:21.796Z,100658.00
2019-03-31T12:54:55.491Z,100664.00
2019-03-31T12:57:29.258Z,100661.00
2019-03-31T13:00:03.338Z,100661.00
2019-03-31T13:02:37.549Z,100656.00
2019-03-31T13:05:11.607Z,100651.00
2019-03-31T13:07:55.695Z,100652.00
2019-03-31T13:10:21.204Z,100645.00
2019-03-31T13:12:54.939Z,100640.00
2019-03-31T13:15:28.591Z,100628.00
2019-03-31T13:18:02.456Z,100628.00
2019-03-31T13:20:36.163Z,100629.00
2019-03-31T13:23:09.814Z,100620.00
2019-03-31T13:25:43.523Z,100634.00
2019-03-31T13:28:17.340Z,100625.00
2019-03-31T13:30:52.158Z,100626.00
2019-03-31T13:33:25.993Z,100624.00
2019-03-31T13:35:59.631Z,100624.00
2019-03-31T13:38:33.309Z,100613.00
2019-03-31T13:41:07.027Z,100613.00
2019-03-31T13:43:40.784Z,100615.00
2019-03-31T13:46:14.616Z,100619.00
2019-03-31T13:48:48.284Z,100611.00
2019-03-31T13:51:24.483Z,100601.00
2019-03-31T13:53:57.806Z,100602.00
2019-03-31T13:56:32.315Z,100596.00
2019-03-31T13:59:09.011Z,100602.00
2019-03-31T14:01:41.953Z,100600.00
2019-03-31T14:04:15.605Z,100594.00
2019-03-31T14:06:49.221Z,100603.00
2019-03-31T14:09:22.995Z,100593.00
2019-03-31T14:11:56.871Z,100594.00
2019-03-31T14:14:30.552Z,100588.00
2019-03-31T14:17:04.302Z,100591.00
2019-03-31T14:19:38.010Z,100586.00
2019-03-31T14:22:11.673Z,100570.00
2019-03-31T14:24:45.337Z,100587.00
2019-03-31T14:27:18.998Z,100591.00
2019-03-31T14:29:52.773Z,100595.00
2019-03-31T14:32:26.501Z,100588.00
2019-03-31T14:35:00.384Z,100587.00
2019-03-31T14:37:34.152Z,100593.00
2019-03-31T14:40:08.103Z,100570.00
2019-03-31T14:42:41.798Z,100570.00
2019-03-31T14:45:31.197Z,100582.00
2019-03-31T14:48:05.036Z,100574.00
2019-03-31T14:50:39.596Z,100578.00
2019-03-31T14:53:13.365Z,100567.00
2019-03-31T14:55:47.198Z,100587.00
2019-03-31T14:58:20.950Z,100578.00
2019-03-31T15:00:54.685Z,100580.00
2019-03-31T15:03:30.127Z,100572.00
2019-03-31T15:06:03.883Z,100573.00
2019-03-31T15:08:37.663Z,100569.00
2019-03-31T15:11:11.708Z,100576.00
2019-03-31T15:13:45.356Z,100575.00
2019-03-31T15:16:20.164Z,100569.00
2019-03-31T15:18:53.839Z,100580.00
2019-03-31T15:21:27.911Z,100586.00
2019-03-31T15:24:01.543Z,100581.00
2019-03-31T15:26:35.379Z,100580.00
2019-03-31T15:29:09.075Z,100589.00
2019-03-31T15:31:42.780Z,100592.00
2019-03-31T15:34:17.689Z,100581.00
2019-03-31T15:36:51.413Z,100594.00
2019-03-31T15:39:25.180Z,100576.00
2019-03-31T15:41:58.841Z,100579.00
2019-03-31T15:44:32.853Z,100581.00
2019-03-31T15:47:06.712Z,100583.00
2019-03-31T15:49:40.436Z,100583.00
2019-03-31T15:52:14.141Z,100578.00
2019-03-31T15:54:47.851Z,100580.00
2019-03-31T15:57:21.626Z,100586.00
2019-03-31T15:59:55.339Z,100592.00
2019-03-31T16:02:29.677Z,100579.00
2019-03-31T16:05:03.931Z,100582.00
2019-03-31T16:07:37.713Z,100590.00
2019-03-31T16:10:10.874Z,100586.00
2019-03-31T16:12:43.782Z,100582.00
2019-03-31T16:15:17.310Z,100588.00
2019-03-31T16:17:50.337Z,100587.00
2019-03-31T16:20:23.233Z,100592.00
2019-03-31T16:22:56.192Z,100592.00
2019-03-31T16:25:41.145Z,100594.00
2019-03-31T16:28:14.008Z,100592.00
2019-03-31T16:30:48.111Z,100597.00
2019-03-31T16:33:21.228Z,100587.00
2019-03-31T16:35:54.218Z,100587.00
2019-03-31T16:38:27.098Z,100587.00
2019-03-31T16:41:00.011Z,100591.00
2019-03-31T16:43:32.991Z,100588.00
2019-03-31T16:46:07.850Z,100587.00
2019-03-31T16:48:40.755Z,100583.00
2019-03-31T16:51:13.637Z,100596.00
2019-03-31T16:53:46.542Z,100594.00
2019-03-31T16:56:19.450Z,100597.00
2019-03-31T16:58:52.415Z,100587.00
2019-03-31T17:01:25.326Z,100601.00
2019-03-31T17:03:58.372Z,100593.00
2019-03-31T17:06:31.252Z,100595.00
2019-03-31T17:09:06.422Z,100595.00
2019-03-31T17:11:39.781Z,100602.00
2019-03-31T17:14:12.872Z,100599.00
2019-03-31T17:16:46.708Z,100600.00
2019-03-31T17:19:19.581Z,100609.00
2019-03-31T17:21:52.570Z,100597.00
2019-03-31T17:24:25.536Z,100592.00
2019-03-31T17:26:58.634Z,100595.00
2019-03-31T17:29:31.530Z,100603.00
2019-03-31T17:32:04.524Z,100594.00
2019-03-31T17:34:37.897Z,100598.00
2019-03-31T17:37:10.852Z,100600.00
2019-03-31T17:39:43.739Z,100594.00
2019-03-31T17:42:16.600Z,100595.00
2019-03-31T17:44:49.518Z,100588.00
2019-03-31T17:47:22.412Z,100604.00
2019-03-31T17:49:55.357Z,100608.00
2019-03-31T17:52:29.366Z,100606.00
2019-03-31T17:55:02.702Z,100611.00
2019-03-31T17:57:35.702Z,100605.00
2019-03-31T18:00:10.308Z,100609.00
2019-03-31T18:02:43.217Z,100612.00
2019-03-31T18:05:16.189Z,100609.00
2019-03-31T18:07:49.383Z,100619.00
2019-03-31T18:10:22.301Z,100612.00
2019-03-31T18:12:55.647Z,100619.00
2019-03-31T18:15:28.710Z,100624.00
2019-03-31T18:18:01.593Z,100627.00
2019-03-31T18:20:34.577Z,100637.00
2019-03-31T18:23:07.622Z,100632.00
2019-03-31T18:25:40.526Z,100652.00
2019-03-31T18:28:13.631Z,100648.00
2019-03-31T18:30:46.522Z,100634.00
2019-03-31T18:33:19.548Z,100637.00
2019-03-31T18:35:53.479Z,100655.00
2019-03-31T18:38:26.357Z,100654.00
2019-03-31T18:41:03.497Z,100655.00
2019-03-31T18:43:50.293Z,100646.00
2019-03-31T18:46:10.523Z,100652.00
2019-03-31T18:48:43.415Z,100666.00
2019-03-31T18:51:16.347Z,100666.00
2019-03-31T18:53:56.207Z,100667.00
2019-03-31T18:56:47.733Z,100676.00
2019-03-31T18:59:32.005Z,100672.00
2019-03-31T19:02:42.396Z,100681.00
2019-03-31T19:05:47.167Z,100682.00
2019-03-31T19:08:36.775Z,100689.00
2019-03-31T19:11:30.855Z,100688.00
2019-03-31T19:14:22.394Z,100694.00
2019-03-31T19:17:18.105Z,100701.00
2019-03-31T19:20:19.860Z,100693.00
2019-03-31T19:23:06.172Z,100691.00
2019-03-31T19:26:16.931Z,100695.00
2019-03-31T19:29:18.231Z,100706.00
2019-03-31T19:32:04.132Z,100697.00
2019-03-31T19:35:00.496Z,100710.00
2019-03-31T19:37:47.073Z,100700.00
2019-03-31T19:40:30.331Z,100718.00
2019-03-31T19:43:21.641Z,100714.00
2019-03-31T19:46:05.666Z,100715.00
2019-03-31T19:49:00.393Z,100725.00
2019-03-31T19:51:51.488Z,100722.00
2019-03-31T19:54:41.999Z,100722.00
2019-03-31T19:57:33.343Z,100722.00
2019-03-31T20:00:19.228Z,100716.00
2019-03-31T20:02:59.065Z,100723.00
2019-03-31T20:05:42.152Z,100715.00
2019-03-31T20:08:37.626Z,100719.00
2019-03-31T20:11:22.874Z,100736.00
2019-03-31T20:14:07.678Z,100732.00
2019-03-31T20:16:51.211Z,100733.00
2019-03-31T20:19:38.266Z,100744.00
2019-03-31T20:22:36.343Z,100741.00
2019-03-31T20:25:18.849Z,100745.00
2019-03-31T20:28:17.025Z,100742.00
2019-03-31T20:31:15.302Z,100741.00
2019-03-31T20:34:09.744Z,100741.00
2019-03-31T20:37:08.744Z,100755.00
2019-03-31T20:40:01.560Z,100742.00
2019-03-31T20:42:57.162Z,100735.00
2019-03-31T20:45:30.022Z,100743.00
2019-03-31T20:48:02.939Z,100746.00
2019-03-31T20:50:35.813Z,100746.00
2019-03-31T20:53:08.718Z,100756.00
2019-03-31T20:55:41.564Z,100749.00
2019-03-31T20:58:14.500Z,100753.00
2019-03-31T21:00:47.385Z,100755.00
2019-03-31T21:03:20.540Z,100764.00
2019-03-31T21:05:53.424Z,100761.00
2019-03-31T21:08:28.380Z,100756.00
2019-03-31T21:11:01.294Z,100759.00
2019-03-31T21:13:34.404Z,100764.00
2019-03-31T21:16:07.189Z,100757.00
2019-03-31T21:18:40.050Z,100761.00
2019-03-31T21:21:13.986Z,100768.00
2019-03-31T21:23:47.307Z,100767.00
2019-03-31T21:26:20.200Z,100757.00
2019-03-31T21:28:53.113Z,100767.00
2019-03-31T21:31:26.034Z,100755.00
2019-03-31T21:33:59.191Z,100750.00
2019-03-31T21:36:32.214Z,100764.00
2019-03-31T21:39:07.300Z,100764.00
2019-03-31T21:41:40.705Z,100761.00
2019-03-31T21:44:13.826Z,100768.00
2019-03-31T21:46:47.828Z,100759.00
2019-03-31T21:49:20.993Z,100762.00
2019-03-31T21:51:54.107Z,100773.00
2019-03-31T21:54:27.458Z,100769.00
2019-03-31T21:57:00.458Z,100770.00
2019-03-31T21:59:33.742Z,100760.00
2019-03-31T22:02:06.825Z,100762.00
2019-03-31T22:04:41.102Z,100764.00
2019-03-31T22:07:14.186Z,100755.00
2019-03-31T22:09:47.343Z,100764.00
2019-03-31T22:12:20.384Z,100761.00
2019-03-31T22:14:53.468Z,100756.00
2019-03-31T22:17:26.505Z,100757.00
2019-03-31T22:19:59.598Z,100760.00
2019-03-31T22:22:32.773Z,100749.00
2019-03-31T22:25:06.257Z,100756.00
2019-03-31T22:27:39.313Z,100763.00
2019-03-31T22:30:13.605Z,100760.00
2019-03-31T22:32:47.047Z,100765.00
2019-03-31T22:35:20.111Z,100755.00
2019-03-31T22:37:53.353Z,100755.00
2019-03-31T22:40:26.530Z,100751.00
2019-03-31T22:42:59.608Z,100753.00
2019-03-31T22:45:32.721Z,100747.00
2019-03-31T22:48:05.758Z,100745.00
2019-03-31T22:50:38.825Z,100726.00
2019-03-31T22:53:11.841Z,100747.00
2019-03-31T22:55:44.895Z,100743.00
2019-03-31T22:58:17.894Z,100739.00
2019-03-31T23:00:51.036Z,100740.00
2019-03-31T23:03:24.108Z,100734.00
2019-03-31T23:05:57.215Z,100729.00
2019-03-31T23:08:30.333Z,100731.00
2019-03-31T23:11:03.430Z,100744.00
2019-03-31T23:13:36.465Z,100741.00
2019-03-31T23:16:09.488Z,100738.00
2019-03-31T23:18:42.584Z,100730.00
2019-03-31T23:21:15.596Z,100738.00
2019-03-31T23:23:48.603Z,100735.00
2019-03-31T23:26:22.714Z,100738.00
2019-03-31T23:28:55.825Z,100740.00
2019-03-31T23:31:28.900Z,100731.00
2019-03-31T23:34:02.018Z,100732.00
2019-03-31T23:36:35.895Z,100735.00
2019-03-31T23:39:08.964Z,100735.00
2019-03-31T23:41:42.040Z,100741.00
2019-03-31T23:44:15.139Z,100736.00
2019-03-31T23:46:48.145Z,100743.00
2019-03-31T23:49:21.218Z,100734.00
2019-03-31T23:51:54.240Z,100741.00
2019-03-31T23:54:27.234Z,100751.00
2019-03-31T23:57:00.530Z,100735.00
2019-03-31T23:59:33.573Z,100731.00
